Time;durP1;ratioP1;P1;durP2;ratioP2;P2;SDS_P1;SDS_P2;PMS_P1;PMS_P2;Temp;Humidity;BMP_temperature;BMP_pressure;BME280_temperature;BME280_humidity;BME280_pressure;Samples;Min_cycle;Max_cycle;Signal;HPM_P1;HPM_P2
2021/07/23 00:00:38;;;;;;;;;;;;;;;20.32;48.18;100070.88;466504;113;924751;-65
2021/07/23 00:01:42;;;;;;;;;;;;;;;20.32;48.34;100073.66;465330;111;922685;-64
2021/07/23 00:02:46;;;;;;;;;;;;;;;20.33;48.23;100075.31;465766;113;922541;-63
2021/07/23 00:03:50;;;;;;;;;;;;;;;20.33;48.29;100080.84;464932;113;922656;-63
2021/07/23 00:04:55;;;;;;;;;;;;;;;20.33;48.24;100080.84;461931;112;922798;-64
2021/07/23 00:05:59;;;;;;;;;;;;;;;20.33;48.41;100077.25;454770;114;921618;-65
2021/07/23 00:07:02;;;;;;;;;;;;;;;20.33;48.21;100080.84;457366;115;921411;-65
2021/07/23 00:08:05;;;;;;;;;;;;;;;20.33;48.21;100077.25;455572;115;921407;-64
2021/07/23 00:09:09;;;;;;;;;;;;;;;20.33;48.33;100077.25;455214;115;921411;-65
2021/07/23 00:10:12;;;;;;;;;;;;;;;20.31;48.16;100069.23;456855;113;921672;-63
2021/07/23 00:11:15;;;;;;;;;;;;;;;20.30;48.03;100078.61;458508;115;922020;-64
2021/07/23 00:12:18;;;;;;;;;;;;;;;20.28;48.06;100075.33;457899;115;922020;-63
2021/07/23 00:13:21;;;;;;;;;;;;;;;20.27;48.14;100079.20;457540;115;921577;-64
2021/07/23 00:14:25;;;;;;;;;;;;;;;20.25;48.18;100075.06;457710;114;921621;-63
2021/07/23 00:15:29;;;;;;;;;;;;;;;20.24;48.23;100082.54;458412;115;921507;-64
2021/07/23 00:16:32;;;;;;;;;;;;;;;20.23;48.25;100080.09;457357;115;921516;-63
2021/07/23 00:17:36;;;;;;;;;;;;;;;20.22;48.26;100084.79;455218;115;921412;-64
2021/07/23 00:18:39;;;;;;;;;;;;;;;20.20;48.28;100084.25;456375;113;922083;-64
2021/07/23 00:19:42;;;;;;;;;;;;;;;20.18;48.31;100077.36;455830;114;921459;-66
2021/07/23 00:20:45;;;;;;;;;;;;;;;20.15;48.33;100078.75;457403;115;921499;-66
2021/07/23 00:21:49;;;;;;;;;;;;;;;20.12;48.33;100079.34;455473;115;921396;-64
2021/07/23 00:22:52;;;;;;;;;;;;;;;20.09;48.47;100087.39;457105;114;921572;-64
2021/07/23 00:23:55;;;;;;;;;;;;;;;20.07;48.52;100090.44;456331;114;923098;-64
2021/07/23 00:24:59;;;;;;;;;;;;;;;20.04;48.58;100088.26;457230;115;923940;-65
2021/07/23 00:26:04;;;;;;;;;;;;;;;20.01;48.76;100088.85;455109;113;923150;-65
2021/07/23 00:27:08;;;;;;;;;;;;;;;20.00;48.81;100092.73;456115;114;922718;-64
2021/07/23 00:28:12;;;;;;;;;;;;;;;19.96;48.81;100092.45;456873;115;922654;-64
2021/07/23 00:29:16;;;;;;;;;;;;;;;19.92;48.88;100083.09;456347;115;921469;-64
2021/07/23 00:30:21;;;;;;;;;;;;;;;19.90;49.05;100092.81;454809;115;922696;-64
2021/07/23 00:31:24;;;;;;;;;;;;;;;19.87;49.12;100087.84;456336;114;922665;-63
2021/07/23 00:32:28;;;;;;;;;;;;;;;19.86;49.23;100088.95;457875;114;922669;-64
2021/07/23 00:33:32;;;;;;;;;;;;;;;19.86;49.25;100083.41;456973;115;922759;-64
2021/07/23 00:34:36;;;;;;;;;;;;;;;19.84;49.34;100089.26;456051;115;922595;-64
2021/07/23 00:35:40;;;;;;;;;;;;;;;19.84;49.41;100085.66;456714;115;922693;-64
2021/07/23 00:36:44;;;;;;;;;;;;;;;19.81;49.39;100092.58;448343;116;923405;-65
2021/07/23 00:37:48;;;;;;;;;;;;;;;19.81;49.39;100094.52;449014;115;921523;-64
2021/07/23 00:38:51;;;;;;;;;;;;;;;19.78;49.45;100093.17;448800;115;923767;-65
2021/07/23 00:39:59;;;;;;;;;;;;;;;19.77;49.55;100097.05;449794;115;922656;-65
2021/07/23 00:41:01;;;;;;;;;;;;;;;19.77;49.66;100107.28;452531;116;921835;-65
2021/07/23 00:42:04;;;;;;;;;;;;;;;19.76;49.62;100100.09;456411;114;923124;-65
2021/07/23 00:43:08;;;;;;;;;;;;;;;19.73;49.84;100093.20;447163;118;922698;-64
2021/07/23 00:44:13;;;;;;;;;;;;;;;19.73;49.89;100097.91;442301;118;922695;-65
2021/07/23 00:45:19;;;;;;;;;;;;;;;19.71;49.98;100102.89;442921;118;923181;-65
2021/07/23 00:46:26;;;;;;;;;;;;;;;19.70;49.95;100104.83;457086;114;922644;-64
2021/07/23 00:47:30;;;;;;;;;;;;;;;19.69;49.90;100092.11;447203;118;924190;-64
2021/07/23 00:48:34;;;;;;;;;;;;;;;19.68;50.08;100097.95;449584;115;922646;-66
2021/07/23 00:49:38;;;;;;;;;;;;;;;19.68;50.07;100095.18;447238;116;923184;-66
2021/07/23 00:50:43;;;;;;;;;;;;;;;19.68;50.08;100101.55;453957;114;922729;-64
2021/07/23 00:51:46;;;;;;;;;;;;;;;19.67;50.01;100110.12;458085;115;923460;-63
2021/07/23 00:52:50;;;;;;;;;;;;;;;19.64;50.01;100108.73;458946;115;922693;-66
2021/07/23 00:53:54;;;;;;;;;;;;;;;19.65;50.08;100107.63;448985;116;924458;-64
2021/07/23 00:54:59;;;;;;;;;;;;;;;19.64;50.04;100110.67;451948;115;923111;-64
2021/07/23 00:56:04;;;;;;;;;;;;;;;19.62;50.04;100108.22;456904;114;923145;-64
2021/07/23 00:57:07;;;;;;;;;;;;;;;19.59;50.17;100111.53;450855;115;923241;-64
2021/07/23 00:58:11;;;;;;;;;;;;;;;19.57;50.37;100117.34;452124;115;921645;-63
2021/07/23 00:59:16;;;;;;;;;;;;;;;19.57;50.64;100111.02;458331;114;922631;-63
2021/07/23 01:00:20;;;;;;;;;;;;;;;19.57;50.60;100114.58;457607;115;922664;-62
2021/07/23 01:01:26;;;;;;;;;;;;;;;19.57;50.35;100117.34;459083;114;922708;-63
2021/07/23 01:02:30;;;;;;;;;;;;;;;19.56;50.30;100114.89;449626;116;921616;-62
2021/07/23 01:03:36;;;;;;;;;;;;;;;19.56;50.22;100117.66;451095;115;921595;-63
2021/07/23 01:04:41;;;;;;;;;;;;;;;19.53;50.23;100124.56;457482;115;921458;-63
2021/07/23 01:05:44;;;;;;;;;;;;;;;19.51;50.22;100115.75;458518;113;921826;-64
2021/07/23 01:06:47;;;;;;;;;;;;;;;19.49;50.34;100115.19;454742;115;921492;-63
2021/07/23 01:07:51;;;;;;;;;;;;;;;19.48;50.49;100121.83;449361;116;921582;-63
2021/07/23 01:08:54;;;;;;;;;;;;;;;19.49;50.55;100122.66;446282;118;921438;-63
2021/07/23 01:10:02;;;;;;;;;;;;;;;19.50;50.53;100119.62;449902;115;921572;-62
2021/07/23 01:11:16;;;;;;;;;;;;;;;19.51;50.47;100121.28;449340;116;921549;-63
2021/07/23 01:12:24;;;;;;;;;;;;;;;19.51;50.52;100126.81;449375;115;921518;-62
2021/07/23 01:13:28;;;;;;;;;;;;;;;19.53;50.68;100121.80;452123;115;921459;-62
2021/07/23 01:14:32;;;;;;;;;;;;;;;19.55;50.60;100127.05;450005;115;921338;-64
2021/07/23 01:15:35;;;;;;;;;;;;;;;19.57;50.78;100124.84;444433;118;921566;-63
2021/07/23 01:16:39;;;;;;;;;;;;;;;19.57;50.82;100133.94;443555;117;921549;-64
2021/07/23 01:17:42;;;;;;;;;;;;;;;19.58;50.81;100126.47;450216;117;921483;-64
2021/07/23 01:18:47;;;;;;;;;;;;;;;19.61;50.84;100127.85;449858;115;921693;-61
2021/07/23 01:20:01;;;;;;;;;;;;;;;19.62;50.85;100135.05;450317;115;922667;-64
2021/07/23 01:21:05;;;;;;;;;;;;;;;19.63;50.97;100136.70;450425;115;922746;-62
2021/07/23 01:22:11;;;;;;;;;;;;;;;19.62;51.11;100137.81;450171;117;922676;-63
2021/07/23 01:23:25;;;;;;;;;;;;;;;19.61;51.27;100141.68;449841;115;922784;-63
2021/07/23 01:24:29;;;;;;;;;;;;;;;19.60;51.34;100138.08;435387;115;922809;-66
2021/07/23 01:25:34;;;;;;;;;;;;;;;19.61;51.50;100142.52;456136;113;921678;-62
2021/07/23 01:26:38;;;;;;;;;;;;;;;19.61;51.45;100138.91;456528;115;922700;-62
2021/07/23 01:27:49;;;;;;;;;;;;;;;19.61;51.57;100136.98;456897;114;921547;-63
2021/07/23 01:29:07;;;;;;;;;;;;;;;19.62;51.70;100143.34;456754;114;922638;-64
2021/07/23 01:30:11;;;;;;;;;;;;;;;19.62;51.67;100141.41;442130;117;922030;-62
2021/07/23 01:31:16;;;;;;;;;;;;;;;19.63;51.49;100145.80;448937;117;922686;-63
2021/07/23 01:32:20;;;;;;;;;;;;;;;19.64;51.52;100143.86;450348;116;921466;-63
2021/07/23 01:33:24;;;;;;;;;;;;;;;19.65;51.50;100145.52;450418;115;921590;-62
2021/07/23 01:34:27;;;;;;;;;;;;;;;19.63;51.55;100148.56;449971;116;922645;-63
2021/07/23 01:35:31;;;;;;;;;;;;;;;19.63;51.49;100145.80;451275;116;922669;-62
2021/07/23 01:36:34;;;;;;;;;;;;;;;19.63;51.38;100147.77;452108;115;922735;-63
2021/07/23 01:37:38;;;;;;;;;;;;;;;19.62;51.36;100152.47;451812;115;921418;-63
2021/07/23 01:38:44;;;;;;;;;;;;;;;19.63;51.33;100151.33;450718;116;921556;-63
2021/07/23 01:39:49;;;;;;;;;;;;;;;19.63;51.35;100147.77;451579;115;923052;-65
2021/07/23 01:40:53;;;;;;;;;;;;;;;19.63;51.28;100153.30;449681;115;921491;-63
2021/07/23 01:41:57;;;;;;;;;;;;;;;19.63;51.41;100153.30;450433;116;921388;-63
2021/07/23 01:43:01;;;;;;;;;;;;;;;19.62;51.46;100146.11;451719;115;921659;-63
2021/07/23 01:44:05;;;;;;;;;;;;;;;19.62;51.43;100149.70;448005;118;923151;-63
2021/07/23 01:45:09;;;;;;;;;;;;;;;19.62;51.29;100146.94;448465;117;921528;-63
2021/07/23 01:46:13;;;;;;;;;;;;;;;19.62;51.16;100151.64;450564;115;922642;-63
2021/07/23 01:47:21;;;;;;;;;;;;;;;19.61;51.11;100144.45;451179;115;922694;-64
2021/07/23 01:48:25;;;;;;;;;;;;;;;19.60;51.16;100153.84;451334;118;921558;-61
2021/07/23 01:49:29;;;;;;;;;;;;;;;19.58;51.19;100148.59;454798;113;921482;-62
2021/07/23 01:50:33;;;;;;;;;;;;;;;19.54;51.21;100151.11;451316;117;921474;-63
2021/07/23 01:51:36;;;;;;;;;;;;;;;19.49;51.40;100153.91;456014;113;922635;-63
2021/07/23 01:52:41;;;;;;;;;;;;;;;19.48;51.37;100154.19;456582;115;922664;-62
2021/07/23 01:53:45;;;;;;;;;;;;;;;19.46;51.37;100154.45;457214;114;922008;-62
2021/07/23 01:54:49;;;;;;;;;;;;;;;19.44;51.48;100156.66;459592;114;923700;-62
2021/07/23 01:56:03;;;;;;;;;;;;;;;19.45;51.64;100157.53;441749;119;922776;-62
2021/07/23 01:57:08;;;;;;;;;;;;;;;19.43;51.60;100163.30;449889;115;923359;-63
2021/07/23 01:58:12;;;;;;;;;;;;;;;19.43;51.53;100159.70;459977;115;921668;-63
2021/07/23 01:59:16;;;;;;;;;;;;;;;19.44;51.47;100155.84;455119;115;921469;-63
2021/07/23 02:00:20;;;;;;;;;;;;;;;19.43;51.54;100160.53;454704;115;921646;-63
2021/07/23 02:01:24;;;;;;;;;;;;;;;19.44;51.59;100155.84;458009;115;921459;-62
2021/07/23 02:02:29;;;;;;;;;;;;;;;19.42;51.52;100158.05;458006;115;921500;-62
2021/07/23 02:03:34;;;;;;;;;;;;;;;19.40;51.38;100155.59;445588;117;921444;-63
2021/07/23 02:04:38;;;;;;;;;;;;;;;19.38;51.41;100149.50;448954;115;921582;-63
2021/07/23 02:05:41;;;;;;;;;;;;;;;19.37;51.49;100155.30;448750;116;921518;-62
2021/07/23 02:06:45;;;;;;;;;;;;;;;19.37;51.52;100158.06;449023;115;921658;-64
2021/07/23 02:07:48;;;;;;;;;;;;;;;19.37;51.58;100155.30;450147;116;921485;-62
2021/07/23 02:08:53;;;;;;;;;;;;;;;19.37;51.57;100158.90;452802;117;921557;-63
2021/07/23 02:09:57;;;;;;;;;;;;;;;19.37;51.50;100158.90;445314;118;921518;-63
2021/07/23 02:11:01;;;;;;;;;;;;;;;19.36;51.52;100157.23;439867;117;921721;-63
2021/07/23 02:12:05;;;;;;;;;;;;;;;19.35;51.66;100158.34;451284;116;921562;-63
2021/07/23 02:13:19;;;;;;;;;;;;;;;19.34;51.84;100155.88;454921;114;922507;-64
2021/07/23 02:14:22;;;;;;;;;;;;;;;19.32;51.90;100158.92;449470;116;921611;-63
2021/07/23 02:15:26;;;;;;;;;;;;;;;19.31;51.99;100156.43;449047;115;921629;-62
2021/07/23 02:16:30;;;;;;;;;;;;;;;19.30;52.14;100149.24;450501;115;922729;-62
2021/07/23 02:17:34;;;;;;;;;;;;;;;19.30;52.33;100157.53;452004;115;922991;-62
2021/07/23 02:18:39;;;;;;;;;;;;;;;19.30;52.29;100160.30;457314;115;923389;-63
2021/07/23 02:19:45;;;;;;;;;;;;;;;19.30;52.32;100157.53;461187;113;922720;-64
2021/07/23 02:20:51;;;;;;;;;;;;;;;19.30;52.09;100154.77;457574;113;922722;-63
2021/07/23 02:21:55;;;;;;;;;;;;;;;19.31;52.17;100154.50;461100;114;925191;-61
2021/07/23 02:23:00;;;;;;;;;;;;;;;19.31;52.09;100164.72;459342;115;922668;-60
2021/07/23 02:24:15;;;;;;;;;;;;;;;19.31;52.29;100164.72;460180;113;921597;-63
2021/07/23 02:25:19;;;;;;;;;;;;;;;19.30;52.37;100165.83;459320;114;922709;-64
2021/07/23 02:26:25;;;;;;;;;;;;;;;19.29;52.54;100161.44;459087;115;922630;-64
2021/07/23 02:27:32;;;;;;;;;;;;;;;19.27;52.55;100166.41;449468;117;922666;-62
2021/07/23 02:28:34;;;;;;;;;;;;;;;19.26;52.62;100167.52;450532;115;922675;-62
2021/07/23 02:29:38;;;;;;;;;;;;;;;19.24;52.76;100169.75;459153;113;923204;-64
2021/07/23 02:30:42;;;;;;;;;;;;;;;19.22;52.89;100170.02;458576;115;922668;-64
2021/07/23 02:31:56;;;;;;;;;;;;;;;19.23;52.86;100166.16;438139;117;923246;-62
2021/07/23 02:32:59;;;;;;;;;;;;;;;19.22;52.91;100175.55;448310;115;922676;-64
2021/07/23 02:34:03;;;;;;;;;;;;;;;19.20;52.91;100177.76;446435;115;923104;-62
2021/07/23 02:35:09;;;;;;;;;;;;;;;19.18;52.67;100185.52;455056;113;921487;-63
2021/07/23 02:36:14;;;;;;;;;;;;;;;19.17;52.45;100178.34;450428;115;923980;-61
2021/07/23 02:37:18;;;;;;;;;;;;;;;19.15;52.41;100178.61;447628;114;922655;-63
2021/07/23 02:38:23;;;;;;;;;;;;;;;19.13;52.66;100174.48;449295;115;921395;-63
2021/07/23 02:39:28;;;;;;;;;;;;;;;19.10;52.75;100178.63;450301;115;922698;-63
2021/07/23 02:40:34;;;;;;;;;;;;;;;19.09;52.82;100176.13;457516;114;922813;-62
2021/07/23 02:41:38;;;;;;;;;;;;;;;19.07;52.44;100179.20;459611;113;922657;-62
2021/07/23 02:42:42;;;;;;;;;;;;;;;19.05;52.75;100173.11;459805;113;922693;-63
2021/07/23 02:43:49;;;;;;;;;;;;;;;19.04;53.22;100178.91;459101;115;922686;-62
2021/07/23 02:44:52;;;;;;;;;;;;;;;19.04;53.43;100173.39;459054;115;922693;-63
2021/07/23 02:45:56;;;;;;;;;;;;;;;19.05;52.95;100177.81;459365;113;923387;-64
2021/07/23 02:47:00;;;;;;;;;;;;;;;19.05;52.55;100170.35;459041;115;922659;-63
2021/07/23 02:48:04;;;;;;;;;;;;;;;19.05;52.54;100175.05;459397;115;921614;-63
2021/07/23 02:49:08;;;;;;;;;;;;;;;19.04;52.74;100168.69;459301;113;921448;-64
2021/07/23 02:50:11;;;;;;;;;;;;;;;19.05;52.87;100172.28;458351;113;921438;-65
2021/07/23 02:51:16;;;;;;;;;;;;;;;19.05;52.92;100172.28;458040;113;921418;-63
2021/07/23 02:52:20;;;;;;;;;;;;;;;19.06;53.02;100169.25;459163;113;921482;-63
2021/07/23 02:53:24;;;;;;;;;;;;;;;19.08;52.75;100174.47;457899;115;921448;-63
2021/07/23 02:54:27;;;;;;;;;;;;;;;19.08;52.78;100178.06;459047;113;921595;-64
2021/07/23 02:55:30;;;;;;;;;;;;;;;19.09;52.96;100178.89;450877;117;921678;-63
2021/07/23 02:56:34;;;;;;;;;;;;;;;19.10;53.24;100177.80;449857;115;921493;-63
2021/07/23 02:57:39;;;;;;;;;;;;;;;19.11;53.29;100179.45;457546;115;921410;-63
2021/07/23 02:58:46;;;;;;;;;;;;;;;19.12;52.83;100181.95;459807;113;921665;-65
2021/07/23 02:59:49;;;;;;;;;;;;;;;19.13;52.86;100180.81;459935;114;921565;-64
2021/07/23 03:00:53;;;;;;;;;;;;;;;19.15;53.03;100172.25;452268;115;921661;-62
2021/07/23 03:01:57;;;;;;;;;;;;;;;19.18;53.26;100180.00;457296;115;921453;-63
2021/07/23 03:03:04;;;;;;;;;;;;;;;19.20;53.50;100183.28;457027;113;921436;-64
2021/07/23 03:04:09;;;;;;;;;;;;;;;19.21;53.60;100184.12;449667;116;921451;-62
2021/07/23 03:05:14;;;;;;;;;;;;;;;19.21;52.88;100173.89;457111;114;923482;-65
2021/07/23 03:06:18;;;;;;;;;;;;;;;19.22;52.88;100181.08;454566;114;923295;-63
2021/07/23 03:07:22;;;;;;;;;;;;;;;19.22;52.83;100181.08;448954;115;923133;-62
2021/07/23 03:08:26;;;;;;;;;;;;;;;19.22;52.78;100186.61;447859;116;922618;-62
2021/07/23 03:09:30;;;;;;;;;;;;;;;19.23;52.93;100190.20;447525;116;922744;-65
2021/07/23 03:10:35;;;;;;;;;;;;;;;19.23;53.22;100190.20;452190;117;922732;-61
2021/07/23 03:11:38;;;;;;;;;;;;;;;19.23;52.78;100188.27;454356;114;922709;-63
2021/07/23 03:12:43;;;;;;;;;;;;;;;19.23;52.45;100191.03;449010;116;923665;-62
2021/07/23 03:13:46;;;;;;;;;;;;;;;19.23;52.42;100191.03;455208;114;923132;-62
2021/07/23 03:14:50;;;;;;;;;;;;;;;19.22;52.52;100194.90;454371;115;922665;-63
2021/07/23 03:15:56;;;;;;;;;;;;;;;19.23;52.89;100204.02;449216;117;923122;-64
2021/07/23 03:17:00;;;;;;;;;;;;;;;19.23;53.22;100199.33;456143;113;921751;-60
2021/07/23 03:18:03;;;;;;;;;;;;;;;19.25;53.43;100201.78;457805;114;923108;-62
2021/07/23 03:19:09;;;;;;;;;;;;;;;19.26;53.35;100203.45;457869;115;922707;-62
2021/07/23 03:20:13;;;;;;;;;;;;;;;19.27;53.50;100205.11;459599;113;922704;-62
2021/07/23 03:21:21;;;;;;;;;;;;;;;19.27;53.55;100197.64;456749;113;922504;-65
2021/07/23 03:22:27;;;;;;;;;;;;;;;19.28;53.12;100196.55;451620;116;922661;-64
2021/07/23 03:23:31;;;;;;;;;;;;;;;19.31;52.92;100197.90;448311;116;923190;-64
2021/07/23 03:24:35;;;;;;;;;;;;;;;19.30;53.22;100199.83;458269;115;922640;-62
2021/07/23 03:25:39;;;;;;;;;;;;;;;19.30;53.24;100201.77;455824;115;923110;-62
2021/07/23 03:26:45;;;;;;;;;;;;;;;19.28;53.27;100202.07;456500;114;922621;-65
2021/07/23 03:27:49;;;;;;;;;;;;;;;19.28;53.29;100198.48;456557;115;923153;-64
2021/07/23 03:28:54;;;;;;;;;;;;;;;19.29;53.25;100200.14;456387;115;921496;-64
2021/07/23 03:30:00;;;;;;;;;;;;;;;19.29;53.26;100203.73;456554;115;922720;-63
2021/07/23 03:31:07;;;;;;;;;;;;;;;19.31;53.17;100203.42;457571;115;922687;-63
2021/07/23 03:32:10;;;;;;;;;;;;;;;19.33;52.91;100209.52;456018;115;922654;-63
2021/07/23 03:33:14;;;;;;;;;;;;;;;19.34;52.75;100202.88;456313;115;922654;-60
2021/07/23 03:34:19;;;;;;;;;;;;;;;19.35;52.81;100197.05;457307;114;922695;-62
2021/07/23 03:35:33;;;;;;;;;;;;;;;19.37;52.67;100203.13;455352;114;922688;-63
2021/07/23 03:36:38;;;;;;;;;;;;;;;19.39;52.79;100202.86;455727;114;921507;-63
2021/07/23 03:37:42;;;;;;;;;;;;;;;19.42;52.76;100205.05;454987;115;922625;-62
2021/07/23 03:39:00;;;;;;;;;;;;;;;19.42;52.20;100194.82;455515;115;922809;-65
2021/07/23 03:40:04;;;;;;;;;;;;;;;19.43;52.14;100201.17;455280;114;922674;-61
2021/07/23 03:41:09;;;;;;;;;;;;;;;19.44;52.16;100202.84;458615;115;921562;-64
2021/07/23 03:42:13;;;;;;;;;;;;;;;19.43;52.34;100199.25;457051;115;921564;-63
2021/07/23 03:43:18;;;;;;;;;;;;;;;19.44;52.55;100197.31;456189;114;921407;-64
2021/07/23 03:44:29;;;;;;;;;;;;;;;19.44;53.01;100198.14;457406;113;921599;-62
2021/07/23 03:45:32;;;;;;;;;;;;;;;19.45;52.97;100205.36;457170;115;921696;-64
2021/07/23 03:46:37;;;;;;;;;;;;;;;19.46;52.92;100198.70;456184;115;921548;-62
2021/07/23 03:47:40;;;;;;;;;;;;;;;19.48;52.73;100196.48;456707;115;921477;-61
2021/07/23 03:48:44;;;;;;;;;;;;;;;19.49;52.58;100198.15;456523;113;921431;-63
2021/07/23 03:49:49;;;;;;;;;;;;;;;19.49;52.68;100203.68;457685;115;921581;-61
2021/07/23 03:50:53;;;;;;;;;;;;;;;19.49;51.75;100203.68;457273;115;921656;-61
2021/07/23 03:51:58;;;;;;;;;;;;;;;19.49;51.68;100200.09;455258;115;921385;-62
2021/07/23 03:53:03;;;;;;;;;;;;;;;19.49;51.77;100200.09;456543;113;921594;-65
2021/07/23 03:54:20;;;;;;;;;;;;;;;19.48;51.87;100206.72;454281;114;922697;-64
2021/07/23 03:55:25;;;;;;;;;;;;;;;19.48;52.03;100204.78;452921;117;921551;-62
2021/07/23 03:56:28;;;;;;;;;;;;;;;19.50;52.13;100199.81;456535;113;922702;-63
2021/07/23 03:57:32;;;;;;;;;;;;;;;19.52;52.09;100200.34;451667;116;922706;-62
2021/07/23 03:58:37;;;;;;;;;;;;;;;19.54;51.86;100198.12;449528;116;922725;-60
2021/07/23 03:59:43;;;;;;;;;;;;;;;19.56;51.77;100201.45;456882;114;923140;-63
2021/07/23 04:00:46;;;;;;;;;;;;;;;19.57;51.93;100205.05;457798;113;922631;-65
2021/07/23 04:01:51;;;;;;;;;;;;;;;19.58;51.66;100201.14;457568;114;922787;-65
2021/07/23 04:02:55;;;;;;;;;;;;;;;19.57;51.63;100205.84;459906;114;921502;-67
2021/07/23 04:03:59;;;;;;;;;;;;;;;19.56;51.48;100198.69;452990;118;922420;-64
2021/07/23 04:05:03;;;;;;;;;;;;;;;19.56;51.50;100208.91;453361;117;922628;-67
2021/07/23 04:06:07;;;;;;;;;;;;;;;19.54;51.45;100205.59;448633;115;922713;-65
2021/07/23 04:07:11;;;;;;;;;;;;;;;19.53;51.31;100210.30;443502;117;924115;-66
2021/07/23 04:08:15;;;;;;;;;;;;;;;19.50;51.38;100201.75;443192;117;922686;-64
2021/07/23 04:09:19;;;;;;;;;;;;;;;19.49;51.68;100200.09;436929;119;922698;-64
2021/07/23 04:10:25;;;;;;;;;;;;;;;19.47;51.89;100208.66;449871;116;922665;-66
2021/07/23 04:11:35;;;;;;;;;;;;;;;19.48;52.10;100206.72;442720;119;922989;-67
2021/07/23 04:12:36;;;;;;;;;;;;;;;19.49;52.12;100209.21;442919;117;923145;-66
2021/07/23 04:13:41;;;;;;;;;;;;;;;19.50;51.75;100207.28;444096;117;923210;-67
2021/07/23 04:14:44;;;;;;;;;;;;;;;19.50;51.87;100201.75;434667;119;921691;-76
2021/07/23 04:15:48;;;;;;;;;;;;;;;19.50;52.03;100208.11;439476;119;922834;-74
2021/07/23 04:16:52;;;;;;;;;;;;;;;19.51;51.88;100207.00;444775;118;923157;-75
2021/07/23 04:17:56;;;;;;;;;;;;;;;19.52;52.02;100207.80;440011;121;923115;-77
2021/07/23 04:19:00;;;;;;;;;;;;;;;19.53;52.15;100210.30;440842;118;923196;-73
2021/07/23 04:20:15;;;;;;;;;;;;;;;19.55;52.23;100202.55;440811;119;922922;-77
2021/07/23 04:21:18;;;;;;;;;;;;;;;19.57;52.28;100207.81;438386;120;921708;-76
2021/07/23 04:22:22;;;;;;;;;;;;;;;19.58;52.29;100203.91;441849;117;922765;-75
2021/07/23 04:23:27;;;;;;;;;;;;;;;19.57;52.11;100208.61;440635;118;922712;-77
2021/07/23 04:24:31;;;;;;;;;;;;;;;19.56;52.26;100206.98;442089;119;922712;-75
2021/07/23 04:25:38;;;;;;;;;;;;;;;19.57;52.33;100207.81;429917;120;922749;-75
2021/07/23 04:26:40;;;;;;;;;;;;;;;19.56;52.15;100204.22;447144;116;922692;-76
2021/07/23 04:27:45;;;;;;;;;;;;;;;19.55;52.31;100202.55;446183;118;923156;-75
2021/07/23 04:28:50;;;;;;;;;;;;;;;19.54;52.23;100200.89;445641;118;922686;-76
2021/07/23 04:29:53;;;;;;;;;;;;;;;19.55;52.41;100201.72;445822;118;922685;-76
2021/07/23 04:30:57;;;;;;;;;;;;;;;19.56;52.75;100197.85;446963;118;921959;-74
2021/07/23 04:32:08;;;;;;;;;;;;;;;19.57;52.80;100203.08;445918;118;922724;-74
2021/07/23 04:33:12;;;;;;;;;;;;;;;19.59;52.65;100205.56;447381;117;923201;-75
2021/07/23 04:34:19;;;;;;;;;;;;;;;19.61;52.54;100205.30;444396;117;923020;-75
2021/07/23 04:35:41;;;;;;;;;;;;;;;19.64;52.44;100210.24;445896;117;922992;-77
2021/07/23 04:36:46;;;;;;;;;;;;;;;19.66;52.54;100206.09;445145;118;922754;-75
2021/07/23 04:38:00;;;;;;;;;;;;;;;19.68;52.50;100209.42;446422;118;922673;-76
2021/07/23 04:39:14;;;;;;;;;;;;;;;19.72;52.52;100206.90;427597;118;923216;-75
2021/07/23 04:40:18;;;;;;;;;;;;;;;19.75;51.96;100203.55;444817;117;922718;-77
2021/07/23 04:41:22;;;;;;;;;;;;;;;19.75;51.93;100206.31;446992;117;922717;-75
2021/07/23 04:42:27;;;;;;;;;;;;;;;19.76;51.95;100199.68;444871;118;923783;-74
2021/07/23 04:43:31;;;;;;;;;;;;;;;19.75;52.00;100207.15;446452;117;921487;-74
2021/07/23 04:44:35;;;;;;;;;;;;;;;19.77;52.20;100206.87;438654;118;921496;-75
2021/07/23 04:45:40;;;;;;;;;;;;;;;19.77;51.70;100204.11;444145;119;921462;-74
2021/07/23 04:46:43;;;;;;;;;;;;;;;19.76;51.89;100205.21;442346;119;921435;-74
2021/07/23 04:47:47;;;;;;;;;;;;;;;19.76;52.05;100207.98;439458;120;923103;-75
2021/07/23 04:48:51;;;;;;;;;;;;;;;19.76;52.16;100208.81;438291;119;923197;-76
2021/07/23 04:50:09;;;;;;;;;;;;;;;19.78;52.25;100205.77;446914;119;922641;-74
2021/07/23 04:51:14;;;;;;;;;;;;;;;19.81;52.24;100206.02;440633;118;922852;-75
2021/07/23 04:52:19;;;;;;;;;;;;;;;19.85;52.26;100200.73;440022;119;922470;-75
2021/07/23 04:53:41;;;;;;;;;;;;;;;19.88;52.19;100209.30;445539;117;922711;-75
2021/07/23 04:55:07;;;;;;;;;;;;;;;19.93;52.09;100203.73;449711;117;922651;-74
2021/07/23 04:56:28;;;;;;;;;;;;;;;19.98;51.91;100200.94;446896;119;922511;-75
2021/07/23 04:57:31;;;;;;;;;;;;;;;20.03;52.00;100211.14;446289;117;922714;-75
2021/07/23 04:58:36;;;;;;;;;;;;;;;20.05;52.00;100206.16;442554;117;923087;-74
2021/07/23 04:59:39;;;;;;;;;;;;;;;20.07;51.96;100205.88;442911;119;922655;-78
2021/07/23 05:00:42;;;;;;;;;;;;;;;20.09;51.92;100204.47;449866;115;922683;-75
2021/07/23 05:01:46;;;;;;;;;;;;;;;20.09;52.07;100207.23;449572;116;922724;-77
2021/07/23 05:02:53;;;;;;;;;;;;;;;20.11;52.14;100205.02;449512;117;922723;-73
2021/07/23 05:03:59;;;;;;;;;;;;;;;20.13;52.07;100204.71;449748;116;922665;-75
2021/07/23 05:05:03;;;;;;;;;;;;;;;20.14;52.06;100198.89;441878;118;921966;-73
2021/07/23 05:06:07;;;;;;;;;;;;;;;20.15;52.07;100203.32;445257;115;923218;-76
2021/07/23 05:07:11;;;;;;;;;;;;;;;20.17;51.80;100205.81;447724;116;923174;-75
2021/07/23 05:08:14;;;;;;;;;;;;;;;20.19;51.69;100201.62;446462;116;923050;-75
2021/07/23 05:09:17;;;;;;;;;;;;;;;20.20;51.73;100203.28;449169;117;922755;-74
2021/07/23 05:10:21;;;;;;;;;;;;;;;20.22;51.71;100212.14;452290;115;922822;-74
2021/07/23 05:11:24;;;;;;;;;;;;;;;20.24;51.32;100204.36;458035;115;922667;-74
2021/07/23 05:12:29;;;;;;;;;;;;;;;20.24;51.29;100207.13;457406;115;922665;-76
2021/07/23 05:13:34;;;;;;;;;;;;;;;20.23;50.85;100204.66;457044;115;923004;-75
2021/07/23 05:14:38;;;;;;;;;;;;;;;20.21;50.98;100207.71;456836;114;923629;-74
2021/07/23 05:15:41;;;;;;;;;;;;;;;20.20;51.27;100208.82;457021;115;922762;-74
2021/07/23 05:16:45;;;;;;;;;;;;;;;20.21;51.54;100204.11;456779;115;922742;-74
2021/07/23 05:17:48;;;;;;;;;;;;;;;20.22;51.72;100212.14;456598;115;922703;-74
2021/07/23 05:18:52;;;;;;;;;;;;;;;20.23;51.62;100210.20;457096;114;923593;-76
2021/07/23 05:19:56;;;;;;;;;;;;;;;20.23;51.80;100204.66;457892;114;922670;-76
2021/07/23 05:20:59;;;;;;;;;;;;;;;20.24;51.87;100212.66;455983;115;922749;-75
2021/07/23 05:22:04;;;;;;;;;;;;;;;20.26;51.84;100207.67;456090;115;923689;-76
2021/07/23 05:23:08;;;;;;;;;;;;;;;20.29;51.70;100209.02;458108;113;922619;-74
2021/07/23 05:24:11;;;;;;;;;;;;;;;20.31;51.43;100213.20;457255;115;922895;-75
2021/07/23 05:25:14;;;;;;;;;;;;;;;20.33;51.44;100208.22;456622;115;922681;-74
2021/07/23 05:26:17;;;;;;;;;;;;;;;20.35;51.67;100205.14;455870;115;922896;-74
2021/07/23 05:27:21;;;;;;;;;;;;;;;20.36;51.58;100212.33;455888;114;923125;-76
2021/07/23 05:28:25;;;;;;;;;;;;;;;20.37;51.64;100211.22;457511;114;922654;-78
2021/07/23 05:29:31;;;;;;;;;;;;;;;20.38;51.44;100216.48;448524;115;923222;-75
2021/07/23 05:30:34;;;;;;;;;;;;;;;20.39;51.42;100218.14;445826;115;922666;-76